Time;durP1;ratioP1;P1;durP2;ratioP2;P2;SDS_P1;SDS_P2;PMS_P1;PMS_P2;Temp;Humidity;BMP_temperature;BMP_pressure;BME280_temperature;BME280_humidity;BME280_pressure;Samples;Min_cycle;Max_cycle;Signal;HPM_P1;HPM_P2
2022/06/18 00:00:29;;;;;;;1.40;1.17;;;;;18.00;94829.00;;;;7394571;19;20581;-76
2022/06/18 00:03:03;;;;;;;1.38;1.25;;;;;18.40;94824.00;;;;7392715;19;20116;-77
2022/06/18 00:05:33;;;;;;;1.83;1.45;;;;;18.90;94819.00;;;;7396337;19;20165;-79
2022/06/18 00:08:01;;;;;;;1.30;1.20;;;;;18.90;94817.00;;;;7397657;19;20125;-77
2022/06/18 00:10:36;;;;;;;2.05;1.38;;;;;18.90;94821.00;;;;7401454;19;20152;-78
2022/06/18 00:16:15;;;;;;;1.92;1.50;;;;;19.00;94825.00;;;;7398356;19;20159;-78
2022/06/18 00:18:42;;;;;;;3.58;1.85;;;;;19.00;94819.00;;;;7397680;19;20619;-78
2022/06/18 00:21:20;;;;;;;1.50;1.40;;;;;18.90;94823.00;;;;7398609;19;20169;-78
2022/06/18 00:23:48;;;;;;;2.15;1.63;;;;;18.70;94822.00;;;;7397661;19;20153;-79
2022/06/18 00:26:16;;;;;;;3.95;1.60;;;;;18.90;94822.00;;;;7394101;19;20150;-78
2022/06/18 00:28:50;;;;;;;1.50;1.40;;;;;19.00;94812.00;;;;7398430;19;20148;-77
2022/06/18 00:31:17;;;;;;;1.50;1.20;;;;;19.30;94817.00;;;;7394368;19;20137;-79
2022/06/18 00:33:45;;;;;;;2.13;1.63;;;;;19.20;94817.00;;;;7393298;19;20165;-78
2022/06/18 00:36:19;;;;;;;2.85;1.50;;;;;19.30;94816.00;;;;7394660;19;20149;-79
2022/06/18 00:38:50;;;;;;;3.70;1.60;;;;;19.40;94806.00;;;;7395541;19;20136;-78
2022/06/18 00:41:23;;;;;;;2.10;1.55;;;;;19.20;94806.00;;;;7397567;19;20129;-79
2022/06/18 00:44:06;;;;;;;1.60;1.50;;;;;19.00;94812.00;;;;7395217;19;20140;-77
2022/06/18 00:46:53;;;;;;;2.85;1.55;;;;;18.70;94802.00;;;;7397202;19;20211;-79
2022/06/18 00:49:40;;;;;;;1.98;1.50;;;;;18.60;94807.00;;;;7392952;19;20137;-79
2022/06/18 00:52:15;;;;;;;6.47;1.80;;;;;18.60;94806.00;;;;7394356;19;20137;-78
2022/06/18 00:55:04;;;;;;;3.08;1.63;;;;;18.50;94807.00;;;;7394918;19;20545;-78
2022/06/18 00:57:54;;;;;;;3.22;1.60;;;;;18.30;94804.00;;;;7397032;19;20134;-78
2022/06/18 01:00:47;;;;;;;2.97;1.60;;;;;18.20;94805.00;;;;7389732;19;20156;-75
2022/06/18 01:03:29;;;;;;;1.60;1.38;;;;;18.30;94805.00;;;;7393553;19;20152;-73
2022/06/18 01:06:11;;;;;;;2.95;1.67;;;;;18.40;94809.00;;;;7395966;19;20140;-76
2022/06/18 01:08:40;;;;;;;1.92;1.58;;;;;18.50;94799.00;;;;7396719;19;20152;-75
2022/06/18 01:11:21;;;;;;;1.80;1.70;;;;;18.50;94801.00;;;;7397329;19;20492;-75
2022/06/18 01:13:50;;;;;;;2.85;1.95;;;;;18.50;94796.00;;;;7397239;19;20154;-75
2022/06/18 01:16:26;;;;;;;3.22;1.90;;;;;18.40;94800.00;;;;7395692;19;20144;-75
2022/06/18 01:18:53;;;;;;;3.42;1.73;;;;;18.30;94794.00;;;;7396159;19;20160;-74
2022/06/18 01:21:54;;;;;;;1.77;1.67;;;;;18.20;94793.00;;;;7396107;19;20160;-72
2022/06/18 01:24:38;;;;;;;2.30;1.83;;;;;18.10;94790.00;;;;7395384;19;20189;-73
2022/06/18 01:27:09;;;;;;;2.17;1.98;;;;;18.10;94793.00;;;;7398846;19;20464;-73
2022/06/18 01:29:44;;;;;;;2.55;2.15;;;;;18.00;94785.00;;;;7394662;19;20137;-73
2022/06/18 01:32:14;;;;;;;2.90;1.95;;;;;18.00;94783.00;;;;7394658;19;20153;-73
2022/06/18 01:34:42;;;;;;;2.65;2.17;;;;;18.30;94782.00;;;;7393029;19;20149;-74
2022/06/18 01:37:16;;;;;;;2.78;2.25;;;;;18.40;94780.00;;;;7395202;19;20148;-75
2022/06/18 01:39:48;;;;;;;2.05;1.85;;;;;18.70;94782.00;;;;7396299;19;20142;-74
2022/06/18 01:42:30;;;;;;;2.15;1.95;;;;;18.70;94770.00;;;;7391729;19;20137;-75
2022/06/18 01:45:11;;;;;;;2.20;2.00;;;;;18.50;94775.00;;;;7391564;19;20165;-75
2022/06/18 01:47:50;;;;;;;3.50;2.10;;;;;18.40;94775.00;;;;7393811;19;20610;-75
2022/06/18 01:50:42;;;;;;;2.10;1.90;;;;;18.70;94771.00;;;;7399064;19;20156;-74
2022/06/18 01:53:45;;;;;;;2.20;2.00;;;;;18.70;94760.00;;;;7395786;19;20197;-74
2022/06/18 01:56:30;;;;;;;4.13;1.80;;;;;18.60;94761.00;;;;7393230;19;20139;-73
2022/06/18 01:59:13;;;;;;;1.73;1.63;;;;;19.00;94751.00;;;;7398932;19;20133;-74
2022/06/18 02:01:49;;;;;;;2.60;1.83;;;;;19.10;94758.00;;;;7392929;19;20133;-74
2022/06/18 02:04:21;;;;;;;3.45;1.98;;;;;19.10;94750.00;;;;7393760;19;21146;-72
2022/06/18 02:06:57;;;;;;;3.95;1.77;;;;;19.00;94738.00;;;;7397616;19;20159;-74
2022/06/18 02:09:48;;;;;;;1.65;1.55;;;;;18.80;94741.00;;;;7393745;19;20160;-74
2022/06/18 02:12:26;;;;;;;1.92;1.73;;;;;18.70;94739.00;;;;7393915;19;20161;-74
2022/06/18 02:14:58;;;;;;;1.50;1.40;;;;;18.60;94730.00;;;;7394153;19;20132;-74
2022/06/18 02:17:33;;;;;;;1.80;1.70;;;;;18.60;94726.00;;;;7395413;19;20655;-74
2022/06/18 02:20:08;;;;;;;3.25;1.60;;;;;18.80;94721.00;;;;7394502;19;20141;-74
2022/06/18 02:22:47;;;;;;;1.85;1.65;;;;;18.60;94715.00;;;;7395936;19;20623;-74
2022/06/18 02:25:18;;;;;;;1.70;1.60;;;;;18.70;94723.00;;;;7395014;19;20136;-74
2022/06/18 02:28:09;;;;;;;3.33;1.60;;;;;18.70;94725.00;;;;7394985;19;20135;-74
2022/06/18 02:30:38;;;;;;;2.20;1.63;;;;;18.80;94725.00;;;;7394767;19;20129;-74
2022/06/18 02:33:24;;;;;;;2.95;1.70;;;;;18.80;94720.00;;;;7396872;19;20129;-74
2022/06/18 02:35:52;;;;;;;3.45;1.70;;;;;18.70;94726.00;;;;7395941;19;20152;-74
2022/06/18 02:38:26;;;;;;;5.60;1.88;;;;;18.80;94722.00;;;;7394619;19;20148;-74
2022/06/18 02:40:54;;;;;;;1.77;1.60;;;;;18.80;94723.00;;;;7394369;19;20142;-74
2022/06/18 02:43:22;;;;;;;1.73;1.60;;;;;18.80;94728.00;;;;7392460;19;20634;-74
2022/06/18 02:45:58;;;;;;;3.50;1.60;;;;;19.00;94719.00;;;;7393592;19;20129;-74
2022/06/18 02:48:34;;;;;;;2.28;1.77;;;;;19.00;94721.00;;;;7391322;19;20505;-73
2022/06/18 02:51:11;;;;;;;3.17;1.83;;;;;18.90;94728.00;;;;7396844;19;20602;-75
2022/06/18 02:53:39;;;;;;;2.65;1.73;;;;;18.80;94725.00;;;;7393494;19;20501;-74
2022/06/18 02:56:09;;;;;;;4.03;1.30;;;;;18.80;94721.00;;;;7393937;19;20125;-74
2022/06/18 02:58:53;;;;;;;6.28;1.70;;;;;18.90;94725.00;;;;7396494;19;20232;-74
2022/06/18 03:01:25;;;;;;;3.03;1.40;;;;;18.90;94716.00;;;;7394637;19;20145;-74
2022/06/18 03:04:02;;;;;;;3.50;1.63;;;;;18.90;94718.00;;;;7392010;19;20169;-74
2022/06/18 03:06:33;;;;;;;3.05;1.50;;;;;18.90;94722.00;;;;7395172;19;20149;-74
2022/06/18 03:09:09;;;;;;;2.35;1.40;;;;;19.10;94728.00;;;;7391434;19;20141;-74
2022/06/18 03:14:29;;;;;;;2.97;1.48;;;;;19.20;94726.00;;;;7392454;19;20592;-74
2022/06/18 03:16:57;;;;;;;1.70;1.60;;;;;18.90;94716.00;;;;7395649;19;20137;-75
2022/06/18 03:19:35;;;;;;;1.95;1.35;;;;;18.60;94719.00;;;;7394785;19;20159;-74
2022/06/18 03:22:16;;;;;;;2.05;1.70;;;;;18.40;94732.00;;;;7392340;19;20133;-75
2022/06/18 03:24:44;;;;;;;2.17;1.38;;;;;18.30;94719.00;;;;7396404;19;20620;-74
2022/06/18 03:27:18;;;;;;;2.75;1.73;;;;;18.20;94721.00;;;;7397090;19;20596;-74
2022/06/18 03:29:47;;;;;;;2.05;1.85;;;;;18.00;94719.00;;;;7394831;19;20144;-74
2022/06/18 03:32:18;;;;;;;1.60;1.50;;;;;17.90;94722.00;;;;7396320;19;20152;-74
2022/06/18 03:34:52;;;;;;;1.45;1.35;;;;;17.80;94724.00;;;;7392538;19;20125;-74
2022/06/18 03:37:20;;;;;;;2.95;1.40;;;;;17.70;94727.00;;;;7392669;19;20137;-74
2022/06/18 03:39:48;;;;;;;4.25;1.60;;;;;17.90;94735.00;;;;7395300;19;20599;-74
2022/06/18 03:42:22;;;;;;;2.10;1.38;;;;;17.90;94732.00;;;;7392166;19;20137;-76
2022/06/18 03:44:50;;;;;;;2.28;1.42;;;;;18.10;94723.00;;;;7390799;19;20165;-74
2022/06/18 03:47:17;;;;;;;2.92;1.40;;;;;18.20;94729.00;;;;7395395;19;20171;-74
2022/06/18 03:49:58;;;;;;;3.85;1.45;;;;;18.20;94733.00;;;;7391544;19;20148;-75
2022/06/18 03:52:25;;;;;;;3.85;1.65;;;;;18.30;94737.00;;;;7391636;19;20133;-74
2022/06/18 03:54:59;;;;;;;2.33;1.40;;;;;18.40;94740.00;;;;7390852;19;20161;-74
2022/06/18 03:57:27;;;;;;;1.48;1.38;;;;;18.40;94741.00;;;;7391196;19;20137;-74
2022/06/18 03:59:55;;;;;;;1.27;1.17;;;;;18.50;94748.00;;;;7392773;19;20188;-76
2022/06/18 04:02:32;;;;;;;2.22;1.40;;;;;18.70;94740.00;;;;7393423;19;20177;-74
2022/06/18 04:05:00;;;;;;;1.20;1.10;;;;;18.70;94740.00;;;;7392351;19;20502;-75
2022/06/18 04:07:27;;;;;;;5.50;1.75;;;;;18.70;94734.00;;;;7391067;19;20129;-73
2022/06/18 04:10:02;;;;;;;5.10;1.60;;;;;18.90;94740.00;;;;7389717;19;20635;-72
2022/06/18 04:12:30;;;;;;;2.00;1.45;;;;;19.10;94740.00;;;;7393712;19;20502;-73
2022/06/18 04:14:58;;;;;;;3.30;1.10;;;;;19.20;94740.00;;;;7389548;19;20495;-73
2022/06/18 04:17:33;;;;;;;1.60;1.50;;;;;19.30;94734.00;;;;7392889;19;20144;-75
2022/06/18 04:20:04;;;;;;;1.83;1.33;;;;;19.30;94736.00;;;;7389318;19;20154;-74
2022/06/18 04:22:32;;;;;;;4.72;1.50;;;;;19.40;94734.00;;;;7390409;19;20161;-73
2022/06/18 04:25:07;;;;;;;2.05;1.50;;;;;19.40;94727.00;;;;7397779;19;20148;-76
2022/06/18 04:27:37;;;;;;;1.42;1.30;;;;;19.40;94730.00;;;;7400998;19;20149;-76
2022/06/18 04:30:07;;;;;;;1.73;1.45;;;;;19.40;94738.00;;;;7398416;19;20267;-75
2022/06/18 04:32:42;;;;;;;1.98;1.30;;;;;19.50;94735.00;;;;7398642;19;20156;-74
2022/06/18 04:35:15;;;;;;;4.88;1.42;;;;;19.40;94739.00;;;;7397999;19;20148;-74
2022/06/18 04:37:51;;;;;;;1.75;1.40;;;;;19.30;94744.00;;;;7400483;19;20133;-73
2022/06/18 04:40:26;;;;;;;2.05;1.60;;;;;19.40;94747.00;;;;7398595;19;20196;-73
2022/06/18 04:43:21;;;;;;;1.40;1.30;;;;;19.40;94737.00;;;;7401134;19;20141;-73
2022/06/18 04:45:49;;;;;;;2.80;1.25;;;;;19.60;94731.00;;;;7398896;19;20129;-72
2022/06/18 04:48:31;;;;;;;1.67;1.40;;;;;19.90;94740.00;;;;7395952;19;20180;-74
2022/06/18 04:50:58;;;;;;;2.90;1.65;;;;;20.00;94734.00;;;;7401231;19;20204;-73
2022/06/18 04:53:34;;;;;;;2.85;1.25;;;;;20.30;94735.00;;;;7401242;19;20212;-74
2022/06/18 04:56:01;;;;;;;1.55;1.23;;;;;20.10;94736.00;;;;7397551;19;20228;-73
2022/06/18 04:58:34;;;;;;;3.42;1.33;;;;;20.40;94726.00;;;;7401841;19;20148;-73
2022/06/18 05:01:15;;;;;;;4.75;1.60;;;;;20.60;94721.00;;;;7398809;19;20154;-72
2022/06/18 05:03:43;;;;;;;2.40;1.80;;;;;20.60;94729.00;;;;7396068;19;20129;-72
2022/06/18 05:06:22;;;;;;;2.05;1.40;;;;;20.80;94722.00;;;;7398203;19;20140;-75
2022/06/18 05:08:52;;;;;;;2.42;1.60;;;;;20.90;94727.00;;;;7397632;19;20145;-75
2022/06/18 05:11:30;;;;;;;1.50;1.40;;;;;21.00;94728.00;;;;7397310;19;20140;-72
2022/06/18 05:13:58;;;;;;;2.78;1.40;;;;;21.20;94729.00;;;;7399491;19;20152;-72
2022/06/18 05:16:31;;;;;;;1.52;1.42;;;;;21.40;94723.00;;;;7401709;19;20141;-75
2022/06/18 05:19:06;;;;;;;1.83;1.42;;;;;21.50;94733.00;;;;7402081;19;20484;-72
2022/06/18 05:21:37;;;;;;;1.50;1.40;;;;;21.80;94724.00;;;;7401425;19;20125;-73
2022/06/18 05:24:05;;;;;;;1.70;1.52;;;;;21.90;94724.00;;;;7398273;19;20157;-73
2022/06/18 05:26:49;;;;;;;1.60;1.50;;;;;22.10;94725.00;;;;7400270;19;20137;-74
2022/06/18 05:29:18;;;;;;;1.63;1.40;;;;;22.30;94731.00;;;;7400227;19;20156;-73
2022/06/18 05:31:53;;;;;;;2.38;1.60;;;;;22.50;94728.00;;;;7400965;19;20160;-74
2022/06/18 05:34:23;;;;;;;3.75;1.40;;;;;22.70;94726.00;;;;7399768;19;20228;-74
2022/06/18 05:36:54;;;;;;;2.65;1.70;;;;;22.90;94729.00;;;;7398803;19;20145;-74
2022/06/18 05:39:32;;;;;;;1.95;1.63;;;;;23.10;94728.00;;;;7397447;19;20133;-73
2022/06/18 05:42:00;;;;;;;1.48;1.38;;;;;23.30;94723.00;;;;7397690;19;20186;-74
2022/06/18 05:44:28;;;;;;;1.92;1.40;;;;;23.50;94727.00;;;;7395139;19;20522;-72
2022/06/18 05:47:25;;;;;;;1.70;1.60;;;;;23.70;94720.00;;;;7396339;19;20152;-73
2022/06/18 05:50:11;;;;;;;2.35;1.65;;;;;24.00;94727.00;;;;7396045;19;20708;-74
2022/06/18 05:52:45;;;;;;;3.42;1.40;;;;;24.10;94723.00;;;;7396235;19;20160;-73
2022/06/18 05:55:14;;;;;;;3.05;1.55;;;;;24.30;94724.00;;;;7393413;19;20678;-74
2022/06/18 05:57:53;;;;;;;2.10;1.58;;;;;24.50;94721.00;;;;7395881;19;20148;-73
2022/06/18 06:00:31;;;;;;;4.07;1.50;;;;;24.60;94729.00;;;;7393092;19;20181;-73
2022/06/18 06:02:59;;;;;;;1.63;1.48;;;;;24.70;94723.00;;;;7394049;19;20159;-74
2022/06/18 06:05:27;;;;;;;2.88;1.52;;;;;24.80;94718.00;;;;7396671;19;20140;-74
2022/06/18 06:08:02;;;;;;;2.13;1.70;;;;;24.90;94719.00;;;;7394683;19;21110;-73
2022/06/18 06:13:29;;;;;;;2.75;1.52;;;;;24.90;94723.00;;;;7395180;19;20515;-74
2022/06/18 06:15:58;;;;;;;2.63;1.60;;;;;24.80;94718.00;;;;7391561;19;20141;-74
2022/06/18 06:18:35;;;;;;;3.10;1.70;;;;;25.10;94723.00;;;;7395533;19;20495;-74
2022/06/18 06:21:03;;;;;;;1.67;1.40;;;;;25.40;94715.00;;;;7395214;19;20510;-74
2022/06/18 06:23:38;;;;;;;4.45;1.70;;;;;25.60;94713.00;;;;7393091;19;20615;-76
2022/06/18 06:26:26;;;;;;;3.90;1.58;;;;;25.90;94715.00;;;;7394295;19;20592;-75
2022/06/18 06:28:54;;;;;;;3.03;1.80;;;;;26.00;94709.00;;;;7390795;19;20615;-75
2022/06/18 06:31:30;;;;;;;2.13;1.55;;;;;26.20;94709.00;;;;7394054;19;20848;-74
2022/06/18 06:33:58;;;;;;;4.45;1.90;;;;;26.30;94701.00;;;;7385076;19;20152;-74
2022/06/18 06:36:27;;;;;;;2.22;1.80;;;;;26.20;94709.00;;;;7397258;19;20133;-75
2022/06/18 06:39:02;;;;;;;2.03;1.65;;;;;26.30;94708.00;;;;7393677;19;20156;-74
2022/06/18 06:41:35;;;;;;;5.53;1.63;;;;;26.50;94710.00;;;;7395027;19;20453;-74
2022/06/18 06:44:45;;;;;;;2.25;1.80;;;;;26.60;94707.00;;;;7387706;19;20197;-74
2022/06/18 06:47:16;;;;;;;4.82;1.67;;;;;26.70;94704.00;;;;7392120;19;20204;-75
2022/06/18 06:49:57;;;;;;;3.38;1.60;;;;;26.90;94694.00;;;;7394784;19;20489;-75
2022/06/18 06:52:29;;;;;;;2.60;1.63;;;;;27.10;94696.00;;;;7394556;19;20160;-73
2022/06/18 06:58:01;;;;;;;1.70;1.50;;;;;27.00;94691.00;;;;7391653;19;20196;-74
2022/06/18 07:00:39;;;;;;;2.33;1.60;;;;;27.20;94697.00;;;;7390921;19;20156;-74
2022/06/18 07:03:14;;;;;;;30.80;18.70;;;;;27.40;94693.00;;;;7393334;19;20137;-74
2022/06/18 07:05:52;;;;;;;384.42;185.70;;;;;27.40;94697.00;;;;7390311;19;20141;-74
2022/06/18 07:08:20;;;;;;;501.27;210.20;;;;;27.40;94694.00;;;;7390527;19;20233;-74
2022/06/18 07:10:50;;;;;;;57.30;27.95;;;;;27.40;94700.00;;;;7386070;19;20159;-75
2022/06/18 07:13:30;;;;;;;2.50;1.85;;;;;27.30;94698.00;;;;7393713;19;20167;-76
2022/06/18 07:16:00;;;;;;;11.30;5.13;;;;;27.70;94696.00;;;;7388049;19;20152;-74
2022/06/18 07:18:36;;;;;;;20.35;10.93;;;;;27.60;94696.00;;;;7390730;19;20512;-73
2022/06/18 07:21:07;;;;;;;33.80;20.25;;;;;27.80;94696.00;;;;7391453;19;20523;-73
2022/06/18 07:23:34;;;;;;;30.20;13.90;;;;;27.70;94694.00;;;;7389679;19;20148;-74
2022/06/18 07:26:15;;;;;;;253.77;153.18;;;;;27.90;94706.00;;;;7391559;19;20156;-74
2022/06/18 07:28:43;;;;;;;298.80;180.98;;;;;27.90;94704.00;;;;7390492;19;20542;-74
2022/06/18 07:31:36;;;;;;;796.72;450.77;;;;;28.10;94705.00;;;;7394400;19;20729;-74
2022/06/18 07:34:10;;;;;;;159.68;90.95;;;;;28.20;94701.00;;;;7390645;19;20156;-74
2022/06/18 07:36:46;;;;;;;22.20;14.43;;;;;28.30;94702.00;;;;7392747;19;20167;-74
2022/06/18 07:39:14;;;;;;;4.95;2.72;;;;;28.40;94693.00;;;;7390675;19;20136;-76
2022/06/18 07:41:51;;;;;;;15.63;9.30;;;;;28.60;94697.00;;;;7389060;19;20144;-75
2022/06/18 07:44:26;;;;;;;22.77;15.10;;;;;28.60;94691.00;;;;7390936;19;20207;-74
2022/06/18 07:47:03;;;;;;;33.60;22.48;;;;;28.50;94691.00;;;;7390683;19;20153;-74
2022/06/18 07:49:44;;;;;;;2.25;1.88;;;;;28.10;94694.00;;;;7390932;19;20188;-75
2022/06/18 07:52:14;;;;;;;3.20;2.42;;;;;28.40;94693.00;;;;7388847;19;20149;-75
2022/06/18 07:54:48;;;;;;;117.25;86.53;;;;;28.70;94699.00;;;;7392182;19;20141;-75
2022/06/18 07:57:23;;;;;;;7.53;5.20;;;;;28.50;94692.00;;;;7391608;19;20143;-75
2022/06/18 08:00:04;;;;;;;17.80;12.13;;;;;28.70;94691.00;;;;7396526;19;20156;-74
2022/06/18 08:02:40;;;;;;;26.23;19.95;;;;;28.70;94695.00;;;;7398172;19;20155;-75
2022/06/18 08:05:22;;;;;;;378.02;263.92;;;;;29.00;94692.00;;;;7395664;19;20152;-75
2022/06/18 08:07:50;;;;;;;157.43;102.13;;;;;29.20;94694.00;;;;7395943;19;20148;-75
2022/06/18 08:10:48;;;;;;;3.70;3.20;;;;;29.10;94682.00;;;;7396565;19;20144;-75
2022/06/18 08:13:16;;;;;;;2.28;1.80;;;;;29.10;94688.00;;;;7397764;19;20125;-75
2022/06/18 08:15:50;;;;;;;1.60;1.50;;;;;28.90;94677.00;;;;7395959;19;20168;-75
2022/06/18 08:18:18;;;;;;;1.50;1.40;;;;;29.10;94688.00;;;;7396438;19;20181;-75
2022/06/18 08:21:06;;;;;;;3.08;2.88;;;;;29.40;94678.00;;;;7397745;19;20141;-75
2022/06/18 08:23:41;;;;;;;1.77;1.60;;;;;29.90;94685.00;;;;7394987;19;20149;-74
2022/06/18 08:26:16;;;;;;;1.50;1.40;;;;;29.90;94679.00;;;;7396186;19;20168;-76
2022/06/18 08:28:51;;;;;;;1.50;1.40;;;;;29.70;94676.00;;;;7398391;19;20526;-75
2022/06/18 08:31:29;;;;;;;3.20;1.58;;;;;29.70;94678.00;;;;7391444;19;20870;-76
2022/06/18 08:34:06;;;;;;;2.70;1.45;;;;;29.80;94664.00;;;;7394878;19;20184;-75
2022/06/18 08:36:36;;;;;;;2.53;1.95;;;;;30.00;94670.00;;;;7397970;19;20504;-75
2022/06/18 08:39:11;;;;;;;1.60;1.50;;;;;30.10;94677.00;;;;7397559;19;20136;-77
2022/06/18 08:42:01;;;;;;;2.75;1.77;;;;;30.10;94668.00;;;;7395928;19;20148;-75
2022/06/18 08:44:55;;;;;;;1.52;1.40;;;;;30.10;94665.00;;;;7396438;19;20172;-76
2022/06/18 08:47:42;;;;;;;1.60;1.50;;;;;30.20;94671.00;;;;7397999;19;20791;-75
2022/06/18 08:50:30;;;;;;;1.60;1.50;;;;;29.90;94671.00;;;;7395347;19;20144;-76
2022/06/18 08:53:11;;;;;;;2.15;1.52;;;;;30.20;94667.00;;;;7397284;19;20148;-76
2022/06/18 08:56:16;;;;;;;1.50;1.40;;;;;30.40;94678.00;;;;7398017;19;20171;-74
2022/06/18 08:59:08;;;;;;;2.13;1.55;;;;;30.30;94671.00;;;;7396911;19;20149;-75
2022/06/18 09:02:03;;;;;;;3.42;1.35;;;;;30.40;94659.00;;;;7397831;19;20221;-76
2022/06/18 09:05:07;;;;;;;2.35;1.50;;;;;30.40;94659.00;;;;7396826;19;20579;-75
2022/06/18 09:08:16;;;;;;;3.13;1.40;;;;;30.60;94655.00;;;;7395012;19;20590;-75
2022/06/18 09:11:08;;;;;;;3.53;1.50;;;;;30.70;94662.00;;;;7393624;19;20176;-75
2022/06/18 09:13:48;;;;;;;2.80;1.20;;;;;30.60;94645.00;;;;7395325;19;20159;-76
2022/06/18 09:16:21;;;;;;;2.03;1.23;;;;;30.80;94658.00;;;;7396860;19;20128;-74
2022/06/18 09:19:04;;;;;;;1.65;1.30;;;;;31.10;94653.00;;;;7396360;19;20192;-76
2022/06/18 09:21:55;;;;;;;3.17;1.30;;;;;31.20;94654.00;;;;7397245;19;20156;-74
2022/06/18 09:24:47;;;;;;;3.35;1.50;;;;;31.10;94652.00;;;;7393953;19;20162;-75
2022/06/18 09:27:25;;;;;;;2.65;1.05;;;;;30.80;94646.00;;;;7395744;19;20159;-76
2022/06/18 09:30:34;;;;;;;3.92;1.13;;;;;31.00;94642.00;;;;7396753;19;20136;-75
2022/06/18 09:33:10;;;;;;;1.48;1.38;;;;;31.40;94641.00;;;;7395945;19;20144;-77
2022/06/18 09:35:48;;;;;;;1.33;1.20;;;;;31.60;94633.00;;;;7391826;19;20178;-75
2022/06/18 09:38:18;;;;;;;1.38;1.27;;;;;30.70;94639.00;;;;7394778;19;20152;-76
2022/06/18 09:41:08;;;;;;;6.07;1.50;;;;;30.90;94645.00;;;;7395638;19;20147;-75
2022/06/18 09:43:57;;;;;;;2.15;1.38;;;;;30.80;94651.00;;;;7394581;19;20178;-75
2022/06/18 09:46:47;;;;;;;4.78;1.73;;;;;30.90;94656.00;;;;7394854;19;20132;-75
2022/06/18 09:49:23;;;;;;;4.82;2.28;;;;;31.20;94659.00;;;;7391135;19;20188;-75
2022/06/18 09:52:13;;;;;;;7.20;1.70;;;;;30.90;94648.00;;;;7394456;19;20140;-74
2022/06/18 09:54:55;;;;;;;4.90;1.90;;;;;31.00;94646.00;;;;7394898;19;20190;-74
2022/06/18 09:57:34;;;;;;;5.43;2.00;;;;;31.20;94643.00;;;;7397453;19;20900;-74
2022/06/18 10:00:13;;;;;;;7.28;1.70;;;;;31.60;94644.00;;;;7393250;19;20716;-76
2022/06/18 10:03:07;;;;;;;2.83;1.70;;;;;31.80;94645.00;;;;7395419;19;20490;-75
2022/06/18 10:08:46;;;;;;;6.72;2.25;;;;;31.60;94640.00;;;;7394230;19;20504;-74
2022/06/18 10:11:15;;;;;;;8.02;2.38;;;;;31.70;94631.00;;;;7396202;19;20143;-75
2022/06/18 10:14:04;;;;;;;9.73;2.25;;;;;31.60;94628.00;;;;7392010;19;20144;-75
2022/06/18 10:17:19;;;;;;;9.27;2.58;;;;;31.80;94635.00;;;;7395035;19;20212;-74
2022/06/18 10:20:12;;;;;;;7.20;2.30;;;;;31.70;94622.00;;;;7393963;19;20158;-76
2022/06/18 10:22:47;;;;;;;9.40;2.95;;;;;32.10;94621.00;;;;7395023;19;20477;-74
2022/06/18 10:25:41;;;;;;;7.85;2.30;;;;;31.90;94614.00;;;;7392961;19;20163;-76
2022/06/18 10:28:53;;;;;;;8.18;2.42;;;;;32.20;94608.00;;;;7392913;19;20135;-76
2022/06/18 10:31:39;;;;;;;13.73;2.72;;;;;32.30;94604.00;;;;7395816;19;20487;-76
2022/06/18 10:34:14;;;;;;;9.13;2.60;;;;;32.60;94602.00;;;;7392438;19;20627;-76
2022/06/18 10:36:57;;;;;;;10.65;2.42;;;;;32.50;94606.00;;;;7391405;19;20132;-76
2022/06/18 10:40:10;;;;;;;7.47;2.60;;;;;31.90;94602.00;;;;7395791;19;20198;-78
2022/06/18 10:43:26;;;;;;;10.25;2.30;;;;;32.00;94600.00;;;;7393682;19;20852;-78
2022/06/18 10:46:06;;;;;;;7.95;2.55;;;;;32.30;94599.00;;;;7390092;19;20155;-77
2022/06/18 10:48:41;;;;;;;7.82;2.55;;;;;32.10;94595.00;;;;7392364;19;20639;-76
2022/06/18 10:51:27;;;;;;;7.03;2.83;;;;;32.10;94593.00;;;;7394694;19;20148;-75
2022/06/18 10:53:58;;;;;;;8.48;2.67;;;;;32.10;94590.00;;;;7391243;19;20151;-76
2022/06/18 10:56:44;;;;;;;9.65;2.45;;;;;32.60;94593.00;;;;7391215;19;20575;-76
2022/06/18 10:59:18;;;;;;;8.45;2.47;;;;;32.50;94588.00;;;;7394846;19;20144;-76
2022/06/18 11:01:57;;;;;;;13.25;2.80;;;;;32.70;94582.00;;;;7390726;19;20159;-77
2022/06/18 11:04:29;;;;;;;9.70;2.88;;;;;33.10;94579.00;;;;7393286;19;20153;-75
2022/06/18 11:07:09;;;;;;;12.13;3.45;;;;;32.80;94582.00;;;;7392748;19;20147;-74
2022/06/18 11:09:48;;;;;;;8.23;2.55;;;;;32.50;94578.00;;;;7393488;19;20611;-76
2022/06/18 11:12:27;;;;;;;8.43;2.50;;;;;32.70;94580.00;;;;7391764;19;20147;-77
2022/06/18 11:14:55;;;;;;;7.38;2.60;;;;;32.70;94581.00;;;;7392230;19;20610;-76
2022/06/18 11:17:33;;;;;;;9.82;2.60;;;;;33.00;94580.00;;;;7395079;19;20151;-76
2022/06/18 11:20:23;;;;;;;8.55;2.95;;;;;33.40;94579.00;;;;7390247;19;20144;-77
2022/06/18 11:23:04;;;;;;;12.38;2.90;;;;;33.60;94574.00;;;;7393548;19;20595;-75
2022/06/18 11:25:49;;;;;;;8.32;2.80;;;;;34.00;94575.00;;;;7390151;19;20140;-76
2022/06/18 11:28:46;;;;;;;8.38;2.40;;;;;34.20;94577.00;;;;7392065;19;20144;-76
2022/06/18 11:31:29;;;;;;;10.77;3.00;;;;;34.10;94575.00;;;;7394314;19;20140;-74
2022/06/18 11:34:16;;;;;;;12.07;3.05;;;;;34.30;94567.00;;;;7399377;19;20606;-76
2022/06/18 11:36:47;;;;;;;9.25;3.20;;;;;34.10;94574.00;;;;7405323;19;20151;-76
2022/06/18 11:39:38;;;;;;;9.65;2.92;;;;;33.50;94559.00;;;;7408197;19;20152;-75
2022/06/18 11:42:20;;;;;;;12.88;3.30;;;;;33.40;94562.00;;;;7404028;19;20144;-75
2022/06/18 11:45:25;;;;;;;11.68;2.88;;;;;33.10;94557.00;;;;7403586;19;20168;-74
2022/06/18 11:48:31;;;;;;;16.38;2.95;;;;;33.50;94554.00;;;;7404204;19;20678;-75
2022/06/18 11:51:33;;;;;;;15.15;3.63;;;;;33.40;94551.00;;;;7405208;19;20485;-74
2022/06/18 11:54:21;;;;;;;14.52;3.33;;;;;33.00;94555.00;;;;7406104;19;20155;-77
2022/06/18 11:57:29;;;;;;;18.15;3.97;;;;;33.10;94546.00;;;;7407175;19;20614;-75
2022/06/18 11:59:56;;;;;;;18.38;3.85;;;;;33.40;94535.00;;;;7404327;19;20170;-75
2022/06/18 12:02:45;;;;;;;12.48;3.08;;;;;33.60;94535.00;;;;7405589;19;20159;-75
2022/06/18 12:05:28;;;;;;;15.73;3.80;;;;;33.40;94533.00;;;;7403576;19;20581;-76
2022/06/18 12:08:05;;;;;;;14.38;3.05;;;;;33.20;94536.00;;;;7405522;19;20207;-77
2022/06/18 12:10:54;;;;;;;16.25;3.28;;;;;33.60;94534.00;;;;7406525;19;20148;-74
2022/06/18 12:13:48;;;;;;;10.98;3.30;;;;;33.80;94529.00;;;;7408198;19;20128;-74
2022/06/18 12:16:39;;;;;;;15.10;3.60;;;;;34.10;94523.00;;;;7403241;19;20156;-75
2022/06/18 12:19:24;;;;;;;12.70;3.53;;;;;34.00;94524.00;;;;7400268;19;20480;-75
2022/06/18 12:22:09;;;;;;;14.20;4.13;;;;;33.80;94527.00;;;;7399748;19;20155;-75
2022/06/18 12:25:25;;;;;;;15.95;3.38;;;;;33.30;94517.00;;;;7402853;19;20502;-74
2022/06/18 12:28:19;;;;;;;16.55;3.72;;;;;33.50;94511.00;;;;7402578;19;20120;-75
2022/06/18 12:31:15;;;;;;;18.98;3.70;;;;;33.50;94513.00;;;;7402094;19;20155;-76
2022/06/18 12:34:18;;;;;;;16.48;3.88;;;;;33.60;94509.00;;;;7397935;19;20509;-76
2022/06/18 12:36:56;;;;;;;14.48;3.08;;;;;34.10;94502.00;;;;7398893;19;20151;-75
2022/06/18 12:39:32;;;;;;;15.43;3.88;;;;;34.10;94496.00;;;;7401457;19;20147;-73
2022/06/18 12:42:42;;;;;;;20.77;3.72;;;;;33.80;94495.00;;;;7398872;19;20622;-74
2022/06/18 12:45:38;;;;;;;15.43;3.28;;;;;33.70;94489.00;;;;7391540;19;20552;-75
2022/06/18 12:49:01;;;;;;;22.15;3.35;;;;;34.20;94497.00;;;;7393215;19;20218;-73
2022/06/18 12:51:51;;;;;;;14.55;3.95;;;;;34.60;94486.00;;;;7395941;19;20152;-75
2022/06/18 12:55:03;;;;;;;17.23;3.72;;;;;34.40;94480.00;;;;7398350;19;20149;-75
2022/06/18 12:57:42;;;;;;;16.73;4.15;;;;;34.40;94479.00;;;;7393696;19;20164;-75
2022/06/18 13:00:37;;;;;;;19.08;3.88;;;;;34.10;94477.00;;;;7392757;19;20155;-76
2022/06/18 13:03:25;;;;;;;19.48;4.03;;;;;34.40;94470.00;;;;7393166;19;20223;-76
2022/06/18 13:06:20;;;;;;;22.00;3.85;;;;;34.00;94477.00;;;;7390996;19;20156;-77
2022/06/18 13:09:00;;;;;;;16.13;4.00;;;;;34.70;94460.00;;;;7393755;19;20139;-75
2022/06/18 13:11:44;;;;;;;18.25;3.85;;;;;34.30;94472.00;;;;7395915;19;20178;-73
2022/06/18 13:14:48;;;;;;;19.80;3.90;;;;;33.90;94468.00;;;;7393767;19;20144;-73
2022/06/18 13:17:30;;;;;;;20.88;4.65;;;;;34.10;94475.00;;;;7393679;19;20140;-75
2022/06/18 13:20:19;;;;;;;19.65;4.78;;;;;34.00;94457.00;;;;7392902;19;20144;-76
2022/06/18 13:22:55;;;;;;;20.20;4.50;;;;;34.20;94457.00;;;;7391935;19;20615;-74
2022/06/18 13:28:57;;;;;;;17.40;3.80;;;;;34.50;94456.00;;;;7392608;19;20140;-75
2022/06/18 13:31:46;;;;;;;21.05;4.97;;;;;34.30;94450.00;;;;7392992;19;20148;-75